sensor_id;sensor_type;location;lat;lon;timestamp;temperature;humidity
15959;DHT22;8078;47.822;9.402;2023-03-04T00:01:11;0.90;99.90
15959;DHT22;8078;47.822;9.402;2023-03-04T00:03:36;0.90;99.90
15959;DHT22;8078;47.822;9.402;2023-03-04T00:06:02;0.80;99.90
15959;DHT22;8078;47.822;9.402;2023-03-04T00:08:28;0.80;99.90
15959;DHT22;8078;47.822;9.402;2023-03-04T00:10:53;0.80;99.90
15959;DHT22;8078;47.822;9.402;2023-03-04T00:13:19;0.80;99.90
15959;DHT22;8078;47.822;9.402;2023-03-04T00:15:46;0.80;99.90
15959;DHT22;8078;47.822;9.402;2023-03-04T00:18:12;0.80;99.90
15959;DHT22;8078;47.822;9.402;2023-03-04T00:20:38;0.70;99.90
15959;DHT22;8078;47.822;9.402;2023-03-04T00:23:03;0.70;99.90
15959;DHT22;8078;47.822;9.402;2023-03-04T00:25:29;0.70;99.90
15959;DHT22;8078;47.822;9.402;2023-03-04T00:27:55;0.70;99.90
15959;DHT22;8078;47.822;9.402;2023-03-04T00:30:20;0.70;99.90
15959;DHT22;8078;47.822;9.402;2023-03-04T00:32:46;0.70;99.90
15959;DHT22;8078;47.822;9.402;2023-03-04T00:35:11;0.70;99.90
15959;DHT22;8078;47.822;9.402;2023-03-04T00:37:37;0.70;99.90
15959;DHT22;8078;47.822;9.402;2023-03-04T00:40:03;0.70;99.90
15959;DHT22;8078;47.822;9.402;2023-03-04T00:42:28;0.70;99.90
15959;DHT22;8078;47.822;9.402;2023-03-04T00:44:54;0.60;99.90
15959;DHT22;8078;47.822;9.402;2023-03-04T00:47:19;0.60;99.90
15959;DHT22;8078;47.822;9.402;2023-03-04T00:49:45;0.60;99.90
15959;DHT22;8078;47.822;9.402;2023-03-04T00:52:10;0.60;99.90
15959;DHT22;8078;47.822;9.402;2023-03-04T00:54:36;0.60;99.90
15959;DHT22;8078;47.822;9.402;2023-03-04T00:57:01;0.60;99.90
15959;DHT22;8078;47.822;9.402;2023-03-04T00:59:27;0.50;99.90
15959;DHT22;8078;47.822;9.402;2023-03-04T01:01:53;0.60;99.90
15959;DHT22;8078;47.822;9.402;2023-03-04T01:04:18;0.70;99.90
15959;DHT22;8078;47.822;9.402;2023-03-04T01:06:44;0.70;99.90
15959;DHT22;8078;47.822;9.402;2023-03-04T01:09:09;0.70;99.90
15959;DHT22;8078;47.822;9.402;2023-03-04T01:11:35;0.90;99.90
15959;DHT22;8078;47.822;9.402;2023-03-04T01:14:01;0.90;99.90
15959;DHT22;8078;47.822;9.402;2023-03-04T01:16:26;1.00;99.90
15959;DHT22;8078;47.822;9.402;2023-03-04T01:18:52;1.00;99.90
15959;DHT22;8078;47.822;9.402;2023-03-04T01:21:17;1.00;99.90
15959;DHT22;8078;47.822;9.402;2023-03-04T01:23:43;1.10;99.90
15959;DHT22;8078;47.822;9.402;2023-03-04T01:26:08;1.00;99.90
15959;DHT22;8078;47.822;9.402;2023-03-04T01:28:34;0.90;99.90
15959;DHT22;8078;47.822;9.402;2023-03-04T01:31:01;0.80;99.90
15959;DHT22;8078;47.822;9.402;2023-03-04T01:33:27;0.80;99.90
15959;DHT22;8078;47.822;9.402;2023-03-04T01:35:52;0.90;99.90
15959;DHT22;8078;47.822;9.402;2023-03-04T01:38:18;0.90;99.90
15959;DHT22;8078;47.822;9.402;2023-03-04T01:40:43;0.80;99.90
15959;DHT22;8078;47.822;9.402;2023-03-04T01:43:17;0.70;99.90
15959;DHT22;8078;47.822;9.402;2023-03-04T01:45:44;0.70;99.90
15959;DHT22;8078;47.822;9.402;2023-03-04T01:48:13;0.70;99.90
15959;DHT22;8078;47.822;9.402;2023-03-04T01:50:40;0.70;99.90
15959;DHT22;8078;47.822;9.402;2023-03-04T01:53:05;0.80;99.90
15959;DHT22;8078;47.822;9.402;2023-03-04T01:55:31;0.80;99.90
15959;DHT22;8078;47.822;9.402;2023-03-04T01:57:57;0.80;99.90
15959;DHT22;8078;47.822;9.402;2023-03-04T02:00:31;0.90;99.90
15959;DHT22;8078;47.822;9.402;2023-03-04T02:03:01;1.30;99.90
15959;DHT22;8078;47.822;9.402;2023-03-04T02:05:28;1.50;99.90
15959;DHT22;8078;47.822;9.402;2023-03-04T02:07:56;1.60;99.90
15959;DHT22;8078;47.822;9.402;2023-03-04T02:10:23;1.70;99.90
15959;DHT22;8078;47.822;9.402;2023-03-04T02:12:48;1.70;99.90
15959;DHT22;8078;47.822;9.402;2023-03-04T02:15:15;1.70;99.90
15959;DHT22;8078;47.822;9.402;2023-03-04T02:17:41;1.70;99.90
15959;DHT22;8078;47.822;9.402;2023-03-04T02:20:17;1.60;99.90
15959;DHT22;8078;47.822;9.402;2023-03-04T02:22:57;1.70;99.90
15959;DHT22;8078;47.822;9.402;2023-03-04T02:25:32;1.70;99.90
15959;DHT22;8078;47.822;9.402;2023-03-04T02:28:00;1.60;99.90
15959;DHT22;8078;47.822;9.402;2023-03-04T02:30:26;1.50;99.90
15959;DHT22;8078;47.822;9.402;2023-03-04T02:32:52;1.60;99.90
15959;DHT22;8078;47.822;9.402;2023-03-04T02:35:18;1.70;99.90
15959;DHT22;8078;47.822;9.402;2023-03-04T02:37:44;1.80;99.90
15959;DHT22;8078;47.822;9.402;2023-03-04T02:40:25;1.70;99.90
15959;DHT22;8078;47.822;9.402;2023-03-04T02:42:52;1.80;99.90
15959;DHT22;8078;47.822;9.402;2023-03-04T02:45:43;1.80;99.90
15959;DHT22;8078;47.822;9.402;2023-03-04T02:48:10;1.80;99.90
15959;DHT22;8078;47.822;9.402;2023-03-04T02:50:43;1.80;99.90
15959;DHT22;8078;47.822;9.402;2023-03-04T02:53:09;1.80;99.90
15959;DHT22;8078;47.822;9.402;2023-03-04T02:55:35;1.80;99.90
15959;DHT22;8078;47.822;9.402;2023-03-04T02:58:01;1.80;99.90
15959;DHT22;8078;47.822;9.402;2023-03-04T03:00:26;1.80;99.90
15959;DHT22;8078;47.822;9.402;2023-03-04T03:02:52;1.80;99.90
15959;DHT22;8078;47.822;9.402;2023-03-04T03:05:19;1.80;99.90
15959;DHT22;8078;47.822;9.402;2023-03-04T03:07:44;1.70;99.90
15959;DHT22;8078;47.822;9.402;2023-03-04T03:10:11;1.70;99.90
15959;DHT22;8078;47.822;9.402;2023-03-04T03:12:40;1.70;99.90
15959;DHT22;8078;47.822;9.402;2023-03-04T03:15:06;1.70;99.90
15959;DHT22;8078;47.822;9.402;2023-03-04T03:17:32;1.70;99.90
15959;DHT22;8078;47.822;9.402;2023-03-04T03:19:58;1.80;99.90
15959;DHT22;8078;47.822;9.402;2023-03-04T03:22:24;1.80;99.90
15959;DHT22;8078;47.822;9.402;2023-03-04T03:24:49;1.80;99.90
15959;DHT22;8078;47.822;9.402;2023-03-04T03:27:15;1.80;99.90
15959;DHT22;8078;47.822;9.402;2023-03-04T03:29:40;1.80;99.90
15959;DHT22;8078;47.822;9.402;2023-03-04T03:32:06;1.80;99.90
15959;DHT22;8078;47.822;9.402;2023-03-04T03:34:31;1.80;99.90
15959;DHT22;8078;47.822;9.402;2023-03-04T03:36:57;1.80;99.90
15959;DHT22;8078;47.822;9.402;2023-03-04T03:39:22;1.80;99.90
15959;DHT22;8078;47.822;9.402;2023-03-04T03:41:48;1.80;99.90
15959;DHT22;8078;47.822;9.402;2023-03-04T03:44:14;1.80;99.90
15959;DHT22;8078;47.822;9.402;2023-03-04T03:46:40;1.70;99.90
15959;DHT22;8078;47.822;9.402;2023-03-04T03:49:05;1.60;99.90
15959;DHT22;8078;47.822;9.402;2023-03-04T03:51:31;1.60;99.90
15959;DHT22;8078;47.822;9.402;2023-03-04T03:53:56;1.60;99.90
15959;DHT22;8078;47.822;9.402;2023-03-04T03:56:22;1.50;99.90
15959;DHT22;8078;47.822;9.402;2023-03-04T03:58:47;1.50;99.90
15959;DHT22;8078;47.822;9.402;2023-03-04T04:01:17;1.60;99.90
15959;DHT22;8078;47.822;9.402;2023-03-04T04:03:43;1.70;99.90
15959;DHT22;8078;47.822;9.402;2023-03-04T04:06:08;1.70;99.90
15959;DHT22;8078;47.822;9.402;2023-03-04T04:08:34;1.70;99.90
15959;DHT22;8078;47.822;9.402;2023-03-04T04:10:59;1.70;99.90
15959;DHT22;8078;47.822;9.402;2023-03-04T04:13:25;1.70;99.90
15959;DHT22;8078;47.822;9.402;2023-03-04T04:15:51;1.60;99.90
15959;DHT22;8078;47.822;9.402;2023-03-04T04:18:17;1.70;99.90
15959;DHT22;8078;47.822;9.402;2023-03-04T04:20:42;1.70;99.90
15959;DHT22;8078;47.822;9.402;2023-03-04T04:23:08;1.70;99.90
15959;DHT22;8078;47.822;9.402;2023-03-04T04:25:33;1.70;99.90
15959;DHT22;8078;47.822;9.402;2023-03-04T04:27:59;1.70;99.90
15959;DHT22;8078;47.822;9.402;2023-03-04T04:30:25;1.60;99.90
15959;DHT22;8078;47.822;9.402;2023-03-04T04:32:50;1.60;99.90
15959;DHT22;8078;47.822;9.402;2023-03-04T04:35:16;1.50;99.90
15959;DHT22;8078;47.822;9.402;2023-03-04T04:37:42;1.40;99.90
15959;DHT22;8078;47.822;9.402;2023-03-04T04:40:08;1.30;99.90
15959;DHT22;8078;47.822;9.402;2023-03-04T04:42:33;1.30;99.90
15959;DHT22;8078;47.822;9.402;2023-03-04T04:44:59;1.30;99.90
15959;DHT22;8078;47.822;9.402;2023-03-04T04:47:25;1.20;99.90
15959;DHT22;8078;47.822;9.402;2023-03-04T04:49:50;1.10;99.90
15959;DHT22;8078;47.822;9.402;2023-03-04T04:52:16;1.10;99.90
15959;DHT22;8078;47.822;9.402;2023-03-04T04:54:41;1.20;99.90
15959;DHT22;8078;47.822;9.402;2023-03-04T04:57:07;1.10;99.90
15959;DHT22;8078;47.822;9.402;2023-03-04T04:59:32;1.10;99.90
15959;DHT22;8078;47.822;9.402;2023-03-04T05:01:58;1.10;99.90
15959;DHT22;8078;47.822;9.402;2023-03-04T05:04:24;1.00;99.90
15959;DHT22;8078;47.822;9.402;2023-03-04T05:06:49;0.80;99.90
15959;DHT22;8078;47.822;9.402;2023-03-04T05:09:15;0.60;99.90
15959;DHT22;8078;47.822;9.402;2023-03-04T05:11:40;0.50;99.90
15959;DHT22;8078;47.822;9.402;2023-03-04T05:14:06;0.40;99.90
15959;DHT22;8078;47.822;9.402;2023-03-04T05:16:31;0.30;99.90
15959;DHT22;8078;47.822;9.402;2023-03-04T05:18:57;0.40;99.90
15959;DHT22;8078;47.822;9.402;2023-03-04T05:21:23;0.70;99.90
15959;DHT22;8078;47.822;9.402;2023-03-04T05:23:49;0.90;99.90
15959;DHT22;8078;47.822;9.402;2023-03-04T05:26:16;1.00;99.90
15959;DHT22;8078;47.822;9.402;2023-03-04T05:28:42;1.00;99.90
15959;DHT22;8078;47.822;9.402;2023-03-04T05:31:07;1.10;99.90
15959;DHT22;8078;47.822;9.402;2023-03-04T05:33:33;1.20;99.90
15959;DHT22;8078;47.822;9.402;2023-03-04T05:36:01;1.40;99.90
15959;DHT22;8078;47.822;9.402;2023-03-04T05:38:27;1.50;99.90
15959;DHT22;8078;47.822;9.402;2023-03-04T05:40:58;1.60;99.90
15959;DHT22;8078;47.822;9.402;2023-03-04T05:43:24;1.50;99.90
15959;DHT22;8078;47.822;9.402;2023-03-04T05:45:50;1.50;99.90
15959;DHT22;8078;47.822;9.402;2023-03-04T05:48:16;1.50;99.90
15959;DHT22;8078;47.822;9.402;2023-03-04T05:50:41;1.60;99.90
15959;DHT22;8078;47.822;9.402;2023-03-04T05:53:07;1.70;99.90
15959;DHT22;8078;47.822;9.402;2023-03-04T05:55:33;1.70;99.90
15959;DHT22;8078;47.822;9.402;2023-03-04T05:57:58;1.70;99.90
15959;DHT22;8078;47.822;9.402;2023-03-04T06:00:24;1.70;99.90
15959;DHT22;8078;47.822;9.402;2023-03-04T06:02:50;1.60;99.90
15959;DHT22;8078;47.822;9.402;2023-03-04T06:05:16;1.60;99.90
15959;DHT22;8078;47.822;9.402;2023-03-04T06:07:42;1.60;99.90
15959;DHT22;8078;47.822;9.402;2023-03-04T06:10:11;1.50;99.90
15959;DHT22;8078;47.822;9.402;2023-03-04T06:12:37;1.50;99.90
15959;DHT22;8078;47.822;9.402;2023-03-04T06:15:03;1.50;99.90
15959;DHT22;8078;47.822;9.402;2023-03-04T06:17:30;1.40;99.90
15959;DHT22;8078;47.822;9.402;2023-03-04T06:19:55;1.30;99.90
15959;DHT22;8078;47.822;9.402;2023-03-04T06:22:21;1.10;99.90
15959;DHT22;8078;47.822;9.402;2023-03-04T06:24:47;1.00;99.90
15959;DHT22;8078;47.822;9.402;2023-03-04T06:27:12;1.10;99.90
15959;DHT22;8078;47.822;9.402;2023-03-04T06:29:38;1.10;99.90
15959;DHT22;8078;47.822;9.402;2023-03-04T06:32:04;1.10;99.90
15959;DHT22;8078;47.822;9.402;2023-03-04T06:34:30;1.00;99.90
15959;DHT22;8078;47.822;9.402;2023-03-04T06:36:55;0.90;99.90
15959;DHT22;8078;47.822;9.402;2023-03-04T06:39:21;0.90;99.90
15959;DHT22;8078;47.822;9.402;2023-03-04T06:41:46;0.90;99.90
15959;DHT22;8078;47.822;9.402;2023-03-04T06:44:12;0.90;99.90
15959;DHT22;8078;47.822;9.402;2023-03-04T06:46:37;1.00;99.90
15959;DHT22;8078;47.822;9.402;2023-03-04T06:49:03;1.10;99.90
15959;DHT22;8078;47.822;9.402;2023-03-04T06:51:28;1.20;99.90
15959;DHT22;8078;47.822;9.402;2023-03-04T06:53:55;1.30;99.90
15959;DHT22;8078;47.822;9.402;2023-03-04T06:56:21;1.40;99.90
15959;DHT22;8078;47.822;9.402;2023-03-04T06:58:47;1.50;99.90
15959;DHT22;8078;47.822;9.402;2023-03-04T07:01:18;1.50;99.90
15959;DHT22;8078;47.822;9.402;2023-03-04T07:03:45;1.60;99.90
15959;DHT22;8078;47.822;9.402;2023-03-04T07:06:13;1.60;99.90
15959;DHT22;8078;47.822;9.402;2023-03-04T07:08:39;1.50;99.90
15959;DHT22;8078;47.822;9.402;2023-03-04T07:11:05;1.40;99.90
15959;DHT22;8078;47.822;9.402;2023-03-04T07:13:31;1.30;99.90
15959;DHT22;8078;47.822;9.402;2023-03-04T07:15:59;1.30;99.90
15959;DHT22;8078;47.822;9.402;2023-03-04T07:18:24;1.40;99.90
15959;DHT22;8078;47.822;9.402;2023-03-04T07:20:53;1.50;99.90
15959;DHT22;8078;47.822;9.402;2023-03-04T07:23:19;1.60;99.90
15959;DHT22;8078;47.822;9.402;2023-03-04T07:25:45;1.60;99.90
15959;DHT22;8078;47.822;9.402;2023-03-04T07:28:11;1.70;99.90
15959;DHT22;8078;47.822;9.402;2023-03-04T07:30:36;1.70;99.90
15959;DHT22;8078;47.822;9.402;2023-03-04T07:33:02;1.80;99.90
15959;DHT22;8078;47.822;9.402;2023-03-04T07:35:28;1.90;99.90
15959;DHT22;8078;47.822;9.402;2023-03-04T07:37:53;1.90;99.90
15959;DHT22;8078;47.822;9.402;2023-03-04T07:40:19;2.00;99.90
15959;DHT22;8078;47.822;9.402;2023-03-04T07:42:53;2.10;99.90
15959;DHT22;8078;47.822;9.402;2023-03-04T07:45:19;2.10;99.90
15959;DHT22;8078;47.822;9.402;2023-03-04T07:47:44;2.00;99.90
15959;DHT22;8078;47.822;9.402;2023-03-04T07:50:11;2.10;99.90
15959;DHT22;8078;47.822;9.402;2023-03-04T07:52:42;2.20;99.90
15959;DHT22;8078;47.822;9.402;2023-03-04T07:55:08;2.10;99.90
15959;DHT22;8078;47.822;9.402;2023-03-04T07:57:34;2.10;99.90
15959;DHT22;8078;47.822;9.402;2023-03-04T08:00:02;2.10;99.90
15959;DHT22;8078;47.822;9.402;2023-03-04T08:02:28;2.20;99.90
15959;DHT22;8078;47.822;9.402;2023-03-04T08:04:53;2.00;99.90
15959;DHT22;8078;47.822;9.402;2023-03-04T08:07:19;2.00;99.90
15959;DHT22;8078;47.822;9.402;2023-03-04T08:09:44;2.00;99.90
15959;DHT22;8078;47.822;9.402;2023-03-04T08:12:10;2.00;99.90
15959;DHT22;8078;47.822;9.402;2023-03-04T08:14:35;2.00;99.90
15959;DHT22;8078;47.822;9.402;2023-03-04T08:17:01;2.10;99.90
15959;DHT22;8078;47.822;9.402;2023-03-04T08:19:27;2.10;99.90
15959;DHT22;8078;47.822;9.402;2023-03-04T08:21:52;2.00;99.90
15959;DHT22;8078;47.822;9.402;2023-03-04T08:24:18;2.10;99.90
15959;DHT22;8078;47.822;9.402;2023-03-04T08:26:46;2.20;99.90
15959;DHT22;8078;47.822;9.402;2023-03-04T08:29:18;2.20;99.90
15959;DHT22;8078;47.822;9.402;2023-03-04T08:31:46;2.20;99.90
15959;DHT22;8078;47.822;9.402;2023-03-04T08:34:12;2.00;99.90
15959;DHT22;8078;47.822;9.402;2023-03-04T08:36:39;2.20;99.90
15959;DHT22;8078;47.822;9.402;2023-03-04T08:39:05;2.10;99.90
15959;DHT22;8078;47.822;9.402;2023-03-04T08:41:31;2.20;99.90
15959;DHT22;8078;47.822;9.402;2023-03-04T08:43:58;2.20;99.90
15959;DHT22;8078;47.822;9.402;2023-03-04T08:46:24;2.10;99.90
15959;DHT22;8078;47.822;9.402;2023-03-04T08:48:49;2.30;99.90
15959;DHT22;8078;47.822;9.402;2023-03-04T08:51:15;2.30;99.90
15959;DHT22;8078;47.822;9.402;2023-03-04T08:53:41;2.20;99.90
15959;DHT22;8078;47.822;9.402;2023-03-04T08:56:08;2.30;99.90
15959;DHT22;8078;47.822;9.402;2023-03-04T08:58:34;2.40;99.90
15959;DHT22;8078;47.822;9.402;2023-03-04T09:01:00;2.30;99.90
15959;DHT22;8078;47.822;9.402;2023-03-04T09:03:26;2.30;99.90
15959;DHT22;8078;47.822;9.402;2023-03-04T09:05:51;2.30;99.90
15959;DHT22;8078;47.822;9.402;2023-03-04T09:08:17;2.40;99.90
15959;DHT22;8078;47.822;9.402;2023-03-04T09:10:44;2.40;99.90
15959;DHT22;8078;47.822;9.402;2023-03-04T09:13:11;2.40;99.90
15959;DHT22;8078;47.822;9.402;2023-03-04T09:15:41;2.40;99.90
15959;DHT22;8078;47.822;9.402;2023-03-04T09:18:08;2.60;99.90
15959;DHT22;8078;47.822;9.402;2023-03-04T09:20:34;2.60;99.90
15959;DHT22;8078;47.822;9.402;2023-03-04T09:22:59;2.60;99.90
15959;DHT22;8078;47.822;9.402;2023-03-04T09:25:25;2.70;99.90
15959;DHT22;8078;47.822;9.402;2023-03-04T09:27:50;2.70;99.90
15959;DHT22;8078;47.822;9.402;2023-03-04T09:30:16;2.80;99.90
15959;DHT22;8078;47.822;9.402;2023-03-04T09:32:42;3.00;99.90
15959;DHT22;8078;47.822;9.402;2023-03-04T09:35:07;2.80;99.90
15959;DHT22;8078;47.822;9.402;2023-03-04T09:37:34;2.90;99.90
15959;DHT22;8078;47.822;9.402;2023-03-04T09:40:00;2.70;99.90
15959;DHT22;8078;47.822;9.402;2023-03-04T09:42:42;2.60;99.90
15959;DHT22;8078;47.822;9.402;2023-03-04T09:45:15;2.50;99.90
15959;DHT22;8078;47.822;9.402;2023-03-04T09:47:42;2.50;99.90
15959;DHT22;8078;47.822;9.402;2023-03-04T09:50:09;2.60;99.90
15959;DHT22;8078;47.822;9.402;2023-03-04T09:55:33;2.90;99.90
15959;DHT22;8078;47.822;9.402;2023-03-04T10:03:19;3.40;99.90
15959;DHT22;8078;47.822;9.402;2023-03-04T10:05:57;3.60;99.90
15959;DHT22;8078;47.822;9.402;2023-03-04T10:10:59;3.60;99.90
15959;DHT22;8078;47.822;9.402;2023-03-04T10:13:34;3.70;99.90
15959;DHT22;8078;47.822;9.402;2023-03-04T10:16:04;3.80;99.90
15959;DHT22;8078;47.822;9.402;2023-03-04T10:18:36;3.90;99.90
15959;DHT22;8078;47.822;9.402;2023-03-04T10:21:25;4.00;99.90
15959;DHT22;8078;47.822;9.402;2023-03-04T10:23:52;4.20;99.90
15959;DHT22;8078;47.822;9.402;2023-03-04T10:26:20;4.30;99.90
15959;DHT22;8078;47.822;9.402;2023-03-04T10:28:46;4.40;99.90
15959;DHT22;8078;47.822;9.402;2023-03-04T10:31:32;4.30;99.90
15959;DHT22;8078;47.822;9.402;2023-03-04T10:33:59;4.40;99.90
15959;DHT22;8078;47.822;9.402;2023-03-04T10:39:09;4.20;99.90
15959;DHT22;8078;47.822;9.402;2023-03-04T10:41:36;4.40;99.90
15959;DHT22;8078;47.822;9.402;2023-03-04T10:46:46;4.50;99.90
15959;DHT22;8078;47.822;9.402;2023-03-04T10:49:16;4.80;99.90
15959;DHT22;8078;47.822;9.402;2023-03-04T10:57:27;4.70;99.90
15959;DHT22;8078;47.822;9.402;2023-03-04T11:02:28;5.50;99.90
15959;DHT22;8078;47.822;9.402;2023-03-04T11:07:29;5.00;99.90
15959;DHT22;8078;47.822;9.402;2023-03-04T11:09:54;5.20;99.90
15959;DHT22;8078;47.822;9.402;2023-03-04T11:12:31;5.20;99.90
15959;DHT22;8078;47.822;9.402;2023-03-04T11:14:57;5.40;99.90
15959;DHT22;8078;47.822;9.402;2023-03-04T11:17:39;5.50;99.90
15959;DHT22;8078;47.822;9.402;2023-03-04T11:22:56;4.90;99.90
15959;DHT22;8078;47.822;9.402;2023-03-04T11:26:12;5.10;99.90
15959;DHT22;8078;47.822;9.402;2023-03-04T11:28:48;4.80;99.90
15959;DHT22;8078;47.822;9.402;2023-03-04T11:31:35;5.20;99.90
15959;DHT22;8078;47.822;9.402;2023-03-04T11:34:19;5.40;99.90
15959;DHT22;8078;47.822;9.402;2023-03-04T11:36:51;5.10;99.90
15959;DHT22;8078;47.822;9.402;2023-03-04T11:39:49;5.30;99.90
15959;DHT22;8078;47.822;9.402;2023-03-04T11:42:22;5.60;99.90
15959;DHT22;8078;47.822;9.402;2023-03-04T11:44:49;5.90;99.90
15959;DHT22;8078;47.822;9.402;2023-03-04T11:48:03;5.80;99.90
15959;DHT22;8078;47.822;9.402;2023-03-04T11:50:53;6.20;99.90
15959;DHT22;8078;47.822;9.402;2023-03-04T11:59:04;7.10;99.90
15959;DHT22;8078;47.822;9.402;2023-03-04T12:12:18;7.00;99.90
15959;DHT22;8078;47.822;9.402;2023-03-04T12:28:24;7.30;99.90
15959;DHT22;8078;47.822;9.402;2023-03-04T12:44:30;8.70;99.90
15959;DHT22;8078;47.822;9.402;2023-03-04T12:47:16;9.10;99.90
15959;DHT22;8078;47.822;9.402;2023-03-04T12:50:03;9.30;99.90
15959;DHT22;8078;47.822;9.402;2023-03-04T12:52:51;8.60;99.90
15959;DHT22;8078;47.822;9.402;2023-03-04T12:55:20;8.80;99.90
15959;DHT22;8078;47.822;9.402;2023-03-04T12:57:48;8.60;99.90
15959;DHT22;8078;47.822;9.402;2023-03-04T13:00:45;8.70;99.90
15959;DHT22;8078;47.822;9.402;2023-03-04T13:03:36;8.50;99.90
15959;DHT22;8078;47.822;9.402;2023-03-04T13:06:11;7.40;99.90
15959;DHT22;8078;47.822;9.402;2023-03-04T13:09:04;6.70;99.90
15959;DHT22;8078;47.822;9.402;2023-03-04T13:14:26;6.60;99.90
15959;DHT22;8078;47.822;9.402;2023-03-04T13:17:35;6.40;99.90
15959;DHT22;8078;47.822;9.402;2023-03-04T13:19:56;6.50;99.90
15959;DHT22;8078;47.822;9.402;2023-03-04T13:43:47;6.80;99.90
15959;DHT22;8078;47.822;9.402;2023-03-04T13:56:38;7.10;99.90
15959;DHT22;8078;47.822;9.402;2023-03-04T14:04:16;7.10;99.90
15959;DHT22;8078;47.822;9.402;2023-03-04T14:06:44;7.10;99.90
15959;DHT22;8078;47.822;9.402;2023-03-04T14:09:22;7.20;99.90
15959;DHT22;8078;47.822;9.402;2023-03-04T14:11:50;7.40;99.90
15959;DHT22;8078;47.822;9.402;2023-03-04T14:14:34;7.70;99.90
15959;DHT22;8078;47.822;9.402;2023-03-04T14:17:05;7.70;99.90
15959;DHT22;8078;47.822;9.402;2023-03-04T14:19:32;7.70;99.90
15959;DHT22;8078;47.822;9.402;2023-03-04T14:22:02;8.00;99.90
15959;DHT22;8078;47.822;9.402;2023-03-04T14:24:59;7.60;99.90
15959;DHT22;8078;47.822;9.402;2023-03-04T14:27:24;7.30;99.90
15959;DHT22;8078;47.822;9.402;2023-03-04T14:29:58;7.30;99.90
15959;DHT22;8078;47.822;9.402;2023-03-04T14:32:24;7.20;99.90
15959;DHT22;8078;47.822;9.402;2023-03-04T14:34:53;7.10;99.90
15959;DHT22;8078;47.822;9.402;2023-03-04T14:37:42;7.10;99.90
15959;DHT22;8078;47.822;9.402;2023-03-04T14:40:30;8.10;99.90
15959;DHT22;8078;47.822;9.402;2023-03-04T14:43:05;8.40;99.90
15959;DHT22;8078;47.822;9.402;2023-03-04T14:45:32;8.70;99.90
15959;DHT22;8078;47.822;9.402;2023-03-04T14:48:03;8.00;99.90
15959;DHT22;8078;47.822;9.402;2023-03-04T14:50:29;7.80;99.90
15959;DHT22;8078;47.822;9.402;2023-03-04T14:55:33;7.70;99.90
15959;DHT22;8078;47.822;9.402;2023-03-04T14:58:07;7.60;99.90
15959;DHT22;8078;47.822;9.402;2023-03-04T15:00:37;7.60;99.90
15959;DHT22;8078;47.822;9.402;2023-03-04T15:03:23;7.70;99.90
15959;DHT22;8078;47.822;9.402;2023-03-04T15:05:49;7.30;99.90
15959;DHT22;8078;47.822;9.402;2023-03-04T15:08:21;6.80;99.90
15959;DHT22;8078;47.822;9.402;2023-03-04T15:11:03;6.90;99.90
15959;DHT22;8078;47.822;9.402;2023-03-04T15:13:45;6.50;99.90
15959;DHT22;8078;47.822;9.402;2023-03-04T15:16:13;6.30;99.90
15959;DHT22;8078;47.822;9.402;2023-03-04T15:21:30;6.00;99.90
15959;DHT22;8078;47.822;9.402;2023-03-04T15:23:56;6.00;99.90
15959;DHT22;8078;47.822;9.402;2023-03-04T15:26:21;6.00;99.90
15959;DHT22;8078;47.822;9.402;2023-03-04T15:28:47;6.00;99.90
15959;DHT22;8078;47.822;9.402;2023-03-04T15:31:21;6.00;99.90
15959;DHT22;8078;47.822;9.402;2023-03-04T15:33:48;6.10;99.90
15959;DHT22;8078;47.822;9.402;2023-03-04T15:36:15;6.10;99.90
15959;DHT22;8078;47.822;9.402;2023-03-04T15:38:47;6.20;99.90
15959;DHT22;8078;47.822;9.402;2023-03-04T15:41:21;6.10;99.90
15959;DHT22;8078;47.822;9.402;2023-03-04T15:43:47;6.00;99.90
15959;DHT22;8078;47.822;9.402;2023-03-04T15:46:13;6.10;99.90
15959;DHT22;8078;47.822;9.402;2023-03-04T15:48:38;6.10;99.90
15959;DHT22;8078;47.822;9.402;2023-03-04T15:51:14;6.10;99.90
15959;DHT22;8078;47.822;9.402;2023-03-04T15:53:42;6.10;99.90
15959;DHT22;8078;47.822;9.402;2023-03-04T15:56:14;6.00;99.90
15959;DHT22;8078;47.822;9.402;2023-03-04T15:58:41;6.00;99.90
15959;DHT22;8078;47.822;9.402;2023-03-04T16:01:13;6.10;99.90
15959;DHT22;8078;47.822;9.402;2023-03-04T16:03:40;6.00;99.90
15959;DHT22;8078;47.822;9.402;2023-03-04T16:06:08;6.10;99.90
15959;DHT22;8078;47.822;9.402;2023-03-04T16:08:34;6.00;99.90
15959;DHT22;8078;47.822;9.402;2023-03-04T16:11:00;6.00;99.90
15959;DHT22;8078;47.822;9.402;2023-03-04T16:13:25;5.80;99.90
15959;DHT22;8078;47.822;9.402;2023-03-04T16:15:51;5.80;99.90
15959;DHT22;8078;47.822;9.402;2023-03-04T16:18:17;5.80;99.90
15959;DHT22;8078;47.822;9.402;2023-03-04T16:20:45;5.70;99.90
15959;DHT22;8078;47.822;9.402;2023-03-04T16:23:18;5.60;99.90
15959;DHT22;8078;47.822;9.402;2023-03-04T16:25:46;5.60;99.90
15959;DHT22;8078;47.822;9.402;2023-03-04T16:28:13;5.60;99.90
15959;DHT22;8078;47.822;9.402;2023-03-04T16:30:39;5.60;99.90
15959;DHT22;8078;47.822;9.402;2023-03-04T16:33:04;5.50;99.90
15959;DHT22;8078;47.822;9.402;2023-03-04T16:35:31;5.50;99.90
15959;DHT22;8078;47.822;9.402;2023-03-04T16:37:58;5.50;99.90
15959;DHT22;8078;47.822;9.402;2023-03-04T16:40:26;5.60;99.90
15959;DHT22;8078;47.822;9.402;2023-03-04T16:42:52;5.70;99.90
15959;DHT22;8078;47.822;9.402;2023-03-04T16:45:21;5.60;99.90
15959;DHT22;8078;47.822;9.402;2023-03-04T16:47:47;5.30;99.90
15959;DHT22;8078;47.822;9.402;2023-03-04T16:50:14;4.90;99.90
15959;DHT22;8078;47.822;9.402;2023-03-04T16:52:43;4.60;99.90
15959;DHT22;8078;47.822;9.402;2023-03-04T16:55:18;4.50;99.90
15959;DHT22;8078;47.822;9.402;2023-03-04T16:57:44;4.40;99.90
15959;DHT22;8078;47.822;9.402;2023-03-04T17:00:11;4.30;99.90
15959;DHT22;8078;47.822;9.402;2023-03-04T17:02:37;4.20;99.90
15959;DHT22;8078;47.822;9.402;2023-03-04T17:05:03;4.00;99.90
15959;DHT22;8078;47.822;9.402;2023-03-04T17:07:29;3.70;99.90
15959;DHT22;8078;47.822;9.402;2023-03-04T17:09:55;3.50;99.90
15959;DHT22;8078;47.822;9.402;2023-03-04T17:12:20;3.60;99.90
15959;DHT22;8078;47.822;9.402;2023-03-04T17:14:46;3.40;99.90
15959;DHT22;8078;47.822;9.402;2023-03-04T17:17:11;3.20;99.90
15959;DHT22;8078;47.822;9.402;2023-03-04T17:19:37;3.10;99.90
15959;DHT22;8078;47.822;9.402;2023-03-04T17:22:02;3.00;99.90
15959;DHT22;8078;47.822;9.402;2023-03-04T17:24:29;3.00;99.90
15959;DHT22;8078;47.822;9.402;2023-03-04T17:26:54;2.90;99.90
15959;DHT22;8078;47.822;9.402;2023-03-04T17:29:20;2.90;99.90
15959;DHT22;8078;47.822;9.402;2023-03-04T17:31:45;2.70;99.90
15959;DHT22;8078;47.822;9.402;2023-03-04T17:34:11;2.60;99.90
15959;DHT22;8078;47.822;9.402;2023-03-04T17:36:37;2.50;99.90
15959;DHT22;8078;47.822;9.402;2023-03-04T17:39:04;2.30;99.90
15959;DHT22;8078;47.822;9.402;2023-03-04T17:41:30;2.30;99.90
15959;DHT22;8078;47.822;9.402;2023-03-04T17:43:55;2.10;99.90
15959;DHT22;8078;47.822;9.402;2023-03-04T17:46:24;2.00;99.90
15959;DHT22;8078;47.822;9.402;2023-03-04T17:48:52;1.90;99.90
15959;DHT22;8078;47.822;9.402;2023-03-04T17:51:33;1.90;99.90
15959;DHT22;8078;47.822;9.402;2023-03-04T17:53:59;1.80;99.90
15959;DHT22;8078;47.822;9.402;2023-03-04T17:56:28;1.80;99.90
15959;DHT22;8078;47.822;9.402;2023-03-04T17:58:55;1.70;99.90
15959;DHT22;8078;47.822;9.402;2023-03-04T18:01:22;1.60;99.90
15959;DHT22;8078;47.822;9.402;2023-03-04T18:03:49;1.50;99.90
15959;DHT22;8078;47.822;9.402;2023-03-04T18:06:15;1.40;99.90
15959;DHT22;8078;47.822;9.402;2023-03-04T18:08:41;1.30;99.90